Time;durP1;ratioP1;P1;durP2;ratioP2;P2;SDS_P1;SDS_P2;PMS_P1;PMS_P2;Temp;Humidity;BMP_temperature;BMP_pressure;BME280_temperature;BME280_humidity;BME280_pressure;Samples;Min_cycle;Max_cycle;Signal;HPM_P1;HPM_P2
2022/01/07 00:02:00;;;;;;;;;;;3.10;99.90;;;;;;5067995;22;19924;-79
2022/01/07 00:04:26;;;;;;;;;;;3.10;99.90;;;;;;5074347;28;19924;-78
2022/01/07 00:06:52;;;;;;;;;;;3.10;99.90;;;;;;5073776;28;19947;-92
2022/01/07 00:09:18;;;;;;;;;;;3.10;99.90;;;;;;5059139;28;20405;-79
2022/01/07 00:11:44;;;;;;;;;;;3.10;99.90;;;;;;5056995;28;19932;-78
2022/01/07 00:14:09;;;;;;;;;;;3.00;99.90;;;;;;5056718;28;19920;-79
2022/01/07 00:16:35;;;;;;;;;;;3.00;99.90;;;;;;5056600;28;20352;-78
2022/01/07 00:19:00;;;;;;;;;;;3.00;99.90;;;;;;5075161;28;19924;-92
2022/01/07 00:21:26;;;;;;;;;;;3.00;99.90;;;;;;5075621;28;19927;-79
2022/01/07 00:23:52;;;;;;;;;;;2.90;99.90;;;;;;5074906;28;19932;-92
2022/01/07 00:26:17;;;;;;;;;;;3.00;99.90;;;;;;5068895;22;19908;-79
2022/01/07 00:28:43;;;;;;;;;;;3.00;99.90;;;;;;5065464;28;19931;-79
2022/01/07 00:31:09;;;;;;;;;;;2.90;99.90;;;;;;5096954;28;20434;-79
2022/01/07 00:33:34;;;;;;;;;;;2.90;99.90;;;;;;5095726;28;19924;-82
2022/01/07 00:36:00;;;;;;;;;;;3.00;99.90;;;;;;5065743;23;20023;-78
2022/01/07 00:38:27;;;;;;;;;;;2.90;99.90;;;;;;5073225;28;19928;-85
2022/01/07 00:40:53;;;;;;;;;;;2.90;99.90;;;;;;5073578;28;20444;-92
2022/01/07 00:43:19;;;;;;;;;;;3.10;99.90;;;;;;5072962;28;19928;-79
2022/01/07 00:45:45;;;;;;;;;;;2.90;99.90;;;;;;5056941;28;19963;-78
2022/01/07 00:48:10;;;;;;;;;;;2.90;99.90;;;;;;5073407;28;19924;-78
2022/01/07 00:50:36;;;;;;;;;;;2.90;99.90;;;;;;5073919;28;20484;-78
2022/01/07 00:53:01;;;;;;;;;;;2.90;99.90;;;;;;5075759;28;20385;-79
2022/01/07 00:55:27;;;;;;;;;;;2.90;99.90;;;;;;5071517;22;20350;-78
2022/01/07 00:57:53;;;;;;;;;;;2.90;99.90;;;;;;5075858;28;19924;-92
2022/01/07 01:00:19;;;;;;;;;;;2.80;99.90;;;;;;5059519;28;19925;-78
2022/01/07 01:02:45;;;;;;;;;;;2.80;99.90;;;;;;5075627;28;19959;-79
2022/01/07 01:05:12;;;;;;;;;;;3.40;99.90;;;;;;5050917;22;20329;-78
2022/01/07 01:07:37;;;;;;;;;;;2.70;99.90;;;;;;5077393;28;19935;-79
2022/01/07 01:10:07;;;;;;;;;;;2.70;99.90;;;;;;5077286;28;20030;-79
2022/01/07 01:12:36;;;;;;;;;;;2.60;99.90;;;;;;5079479;28;20018;-79
2022/01/07 01:15:03;;;;;;;;;;;3.40;99.90;;;;;;5063981;28;19976;-79
2022/01/07 01:17:28;;;;;;;;;;;2.60;99.90;;;;;;5079836;28;19925;-79
2022/01/07 01:19:54;;;;;;;;;;;3.20;99.90;;;;;;5079945;28;20023;-79
2022/01/07 01:22:19;;;;;;;;;;;2.60;99.90;;;;;;5063461;28;19971;-79
2022/01/07 01:24:45;;;;;;;;;;;2.60;99.90;;;;;;5064400;28;20025;-79
2022/01/07 01:27:10;;;;;;;;;;;2.70;99.90;;;;;;5098657;28;19975;-79
2022/01/07 01:29:37;;;;;;;;;;;2.90;99.90;;;;;;5079803;28;20294;-79
2022/01/07 01:32:03;;;;;;;;;;;3.20;99.90;;;;;;5062410;28;19924;-79
2022/01/07 01:34:29;;;;;;;;;;;2.40;99.90;;;;;;5087126;22;19942;-81
2022/01/07 01:36:54;;;;;;;;;;;2.80;99.90;;;;;;5063566;28;19925;-79
2022/01/07 01:39:20;;;;;;;;;;;2.60;99.90;;;;;;5067136;23;19929;-79
2022/01/07 01:41:45;;;;;;;;;;;2.60;99.90;;;;;;5078424;28;19928;-81
2022/01/07 01:44:11;;;;;;;;;;;2.60;99.90;;;;;;5078537;28;19931;-80
2022/01/07 01:46:37;;;;;;;;;;;2.70;99.90;;;;;;5063018;28;19924;-80
2022/01/07 01:49:03;;;;;;;;;;;2.60;99.90;;;;;;5061872;28;19924;-95
2022/01/07 01:51:28;;;;;;;;;;;2.50;99.90;;;;;;5080141;28;20387;-94
2022/01/07 01:53:54;;;;;;;;;;;2.60;99.90;;;;;;5062833;28;19931;-80
2022/01/07 01:56:20;;;;;;;;;;;3.00;99.90;;;;;;5062558;28;19967;-80
2022/01/07 01:58:45;;;;;;;;;;;2.50;99.90;;;;;;5090037;28;20450;-94
2022/01/07 02:01:11;;;;;;;;;;;2.80;99.90;;;;;;5062019;28;19932;-80
2022/01/07 02:03:38;;;;;;;;;;;2.90;99.90;;;;;;5062510;28;19932;-81
2022/01/07 02:08:35;;;;;;;;;;;2.50;99.90;;;;;;5091899;22;19923;-94
2022/01/07 02:11:01;;;;;;;;;;;2.50;99.90;;;;;;5088487;22;19932;-94
2022/01/07 02:13:26;;;;;;;;;;;2.50;99.90;;;;;;5075977;22;19916;-94
2022/01/07 02:15:52;;;;;;;;;;;2.50;99.90;;;;;;5083880;23;20015;-83
2022/01/07 02:18:18;;;;;;;;;;;2.50;99.90;;;;;;5079740;28;19932;-80
2022/01/07 02:20:44;;;;;;;;;;;2.50;99.90;;;;;;5080329;28;20393;-80
2022/01/07 02:23:09;;;;;;;;;;;2.50;99.90;;;;;;5080143;28;19924;-80
2022/01/07 02:25:35;;;;;;;;;;;2.40;99.90;;;;;;5080933;28;19931;-80
2022/01/07 02:28:00;;;;;;;;;;;2.50;99.90;;;;;;5063620;28;19964;-80
2022/01/07 02:30:27;;;;;;;;;;;2.50;99.90;;;;;;5090496;22;19924;-80
2022/01/07 02:32:53;;;;;;;;;;;2.40;99.90;;;;;;5101656;28;19966;-80
2022/01/07 02:35:19;;;;;;;;;;;2.40;99.90;;;;;;5083723;28;19920;-80
2022/01/07 02:37:45;;;;;;;;;;;2.40;99.90;;;;;;5069654;28;19924;-80
2022/01/07 02:40:11;;;;;;;;;;;2.40;99.90;;;;;;5103317;28;19927;-80
2022/01/07 02:42:37;;;;;;;;;;;2.40;99.90;;;;;;5065832;28;20343;-80
2022/01/07 02:45:05;;;;;;;;;;;2.40;99.90;;;;;;5065909;28;19950;-80
2022/01/07 02:47:37;;;;;;;;;;;2.40;99.90;;;;;;5072281;22;19924;-80
2022/01/07 02:50:05;;;;;;;;;;;2.40;99.90;;;;;;5086353;22;20363;-81
2022/01/07 02:52:31;;;;;;;;;;;2.40;99.90;;;;;;5100083;28;19924;-80
2022/01/07 02:54:57;;;;;;;;;;;3.00;99.90;;;;;;5108230;22;19992;-90
2022/01/07 02:57:22;;;;;;;;;;;2.40;99.90;;;;;;5082214;22;19992;-92
2022/01/07 02:59:48;;;;;;;;;;;2.50;99.90;;;;;;5062031;28;19960;-80
2022/01/07 03:02:14;;;;;;;;;;;2.50;99.90;;;;;;5063430;28;19947;-80
2022/01/07 03:04:39;;;;;;;;;;;3.10;99.90;;;;;;5062760;28;19963;-80
2022/01/07 03:07:05;;;;;;;;;;;2.50;99.90;;;;;;5079112;28;19924;-80
2022/01/07 03:09:30;;;;;;;;;;;2.50;99.90;;;;;;5062704;28;19924;-93
2022/01/07 03:11:56;;;;;;;;;;;2.50;99.90;;;;;;5094215;22;19932;-81
2022/01/07 03:14:21;;;;;;;;;;;2.60;99.90;;;;;;5080059;28;19924;-94
2022/01/07 03:16:47;;;;;;;;;;;2.50;99.90;;;;;;5097607;28;20321;-80
2022/01/07 03:19:12;;;;;;;;;;;2.90;99.90;;;;;;5081874;28;20471;-80
2022/01/07 03:21:38;;;;;;;;;;;2.80;99.90;;;;;;5082605;22;19924;-80
2022/01/07 03:26:29;;;;;;;;;;;2.60;99.90;;;;;;5116125;22;19932;-94
2022/01/07 03:28:55;;;;;;;;;;;2.60;99.90;;;;;;5065745;28;19924;-95
2022/01/07 03:31:20;;;;;;;;;;;2.60;99.90;;;;;;5073345;22;20011;-80
2022/01/07 03:33:46;;;;;;;;;;;2.60;99.90;;;;;;5081578;28;19924;-93
2022/01/07 03:36:11;;;;;;;;;;;2.60;99.90;;;;;;5065043;28;19928;-80
2022/01/07 03:38:37;;;;;;;;;;;3.30;99.90;;;;;;5065461;28;19935;-80
2022/01/07 03:41:02;;;;;;;;;;;2.90;99.90;;;;;;5081284;28;19932;-80
2022/01/07 03:43:28;;;;;;;;;;;2.70;99.90;;;;;;5081374;28;19924;-80
2022/01/07 03:45:54;;;;;;;;;;;2.70;99.90;;;;;;5082751;23;19931;-81
2022/01/07 03:48:19;;;;;;;;;;;2.60;99.90;;;;;;5073892;22;19944;-80
2022/01/07 03:50:45;;;;;;;;;;;2.60;99.90;;;;;;5041823;28;19925;-93
2022/01/07 03:53:10;;;;;;;;;;;2.60;99.90;;;;;;5041941;28;20325;-80
2022/01/07 03:55:36;;;;;;;;;;;2.60;99.90;;;;;;5040332;28;19931;-81
2022/01/07 03:58:02;;;;;;;;;;;2.50;99.90;;;;;;5039148;28;19924;-81
2022/01/07 04:00:33;;;;;;;;;;;3.10;99.90;;;;;;5039626;28;20023;-94
2022/01/07 04:03:06;;;;;;;;;;;2.50;99.90;;;;;;5040981;28;19931;-93
2022/01/07 04:05:32;;;;;;;;;;;2.60;99.90;;;;;;5040934;28;20420;-80
2022/01/07 04:07:58;;;;;;;;;;;3.00;99.90;;;;;;5057034;28;19972;-81
2022/01/07 04:10:23;;;;;;;;;;;2.90;99.90;;;;;;5039981;28;19948;-81
2022/01/07 04:12:49;;;;;;;;;;;2.50;99.90;;;;;;5040986;28;20031;-93
2022/01/07 04:15:16;;;;;;;;;;;3.00;99.90;;;;;;5029952;23;19979;-80
2022/01/07 04:17:43;;;;;;;;;;;2.60;99.90;;;;;;5021283;28;19929;-80
2022/01/07 04:20:10;;;;;;;;;;;3.00;99.90;;;;;;5021482;28;19975;-80
2022/01/07 04:22:35;;;;;;;;;;;2.60;99.90;;;;;;5020910;28;20375;-81
2022/01/07 04:27:27;;;;;;;;;;;2.60;99.90;;;;;;5080329;23;19966;-80
2022/01/07 04:29:52;;;;;;;;;;;2.80;99.90;;;;;;5059734;28;19974;-85
2022/01/07 04:32:18;;;;;;;;;;;2.70;99.90;;;;;;5065998;22;19925;-80
2022/01/07 04:34:44;;;;;;;;;;;2.70;99.90;;;;;;5063434;28;19974;-80
2022/01/07 04:37:09;;;;;;;;;;;2.70;99.90;;;;;;5062642;28;19928;-80
2022/01/07 04:39:35;;;;;;;;;;;2.70;99.90;;;;;;5067982;23;19929;-81
2022/01/07 04:42:07;;;;;;;;;;;2.70;99.90;;;;;;5102098;22;19925;-82
2022/01/07 04:44:33;;;;;;;;;;;2.70;99.90;;;;;;5075659;22;19925;-81
2022/01/07 04:47:05;;;;;;;;;;;2.70;99.90;;;;;;5077174;22;19935;-82
2022/01/07 04:49:30;;;;;;;;;;;2.70;99.90;;;;;;5070349;22;20568;-81
2022/01/07 04:51:56;;;;;;;;;;;2.70;99.90;;;;;;5051761;23;19960;-81
2022/01/07 04:54:21;;;;;;;;;;;2.70;99.90;;;;;;5078638;22;19925;-82
2022/01/07 04:56:47;;;;;;;;;;;2.70;99.90;;;;;;5086446;23;19935;-81
2022/01/07 04:59:13;;;;;;;;;;;2.70;99.90;;;;;;5098901;22;20027;-81
2022/01/07 05:01:38;;;;;;;;;;;3.50;99.90;;;;;;5088251;22;19925;-81
2022/01/07 05:04:10;;;;;;;;;;;2.80;99.90;;;;;;5099996;22;19936;-93
2022/01/07 05:06:45;;;;;;;;;;;2.80;99.90;;;;;;5097634;22;19992;-81
2022/01/07 05:09:20;;;;;;;;;;;2.80;99.90;;;;;;5122344;22;19928;-81
2022/01/07 05:11:50;;;;;;;;;;;2.80;99.90;;;;;;5087681;22;19992;-81
2022/01/07 05:14:16;;;;;;;;;;;2.80;99.90;;;;;;5103874;22;19923;-81
2022/01/07 05:16:43;;;;;;;;;;;3.10;99.90;;;;;;5093150;22;20386;-81
2022/01/07 05:19:09;;;;;;;;;;;2.80;99.90;;;;;;5101858;22;20110;-81
2022/01/07 05:21:35;;;;;;;;;;;2.90;99.90;;;;;;5099253;22;19949;-81
2022/01/07 05:24:01;;;;;;;;;;;3.10;99.90;;;;;;5097340;22;19924;-81
2022/01/07 05:26:26;;;;;;;;;;;2.90;99.90;;;;;;5108920;22;19935;-94
2022/01/07 05:28:52;;;;;;;;;;;2.90;99.90;;;;;;5085801;22;19924;-94
2022/01/07 05:31:18;;;;;;;;;;;2.90;99.90;;;;;;5077803;22;19928;-81
2022/01/07 05:33:44;;;;;;;;;;;2.90;99.90;;;;;;5088994;22;19928;-82
2022/01/07 05:36:09;;;;;;;;;;;2.90;99.90;;;;;;5097455;22;20382;-81
2022/01/07 05:38:35;;;;;;;;;;;3.40;99.90;;;;;;5094671;22;19963;-93
2022/01/07 05:41:04;;;;;;;;;;;2.90;99.90;;;;;;5098117;22;19924;-80
2022/01/07 05:43:30;;;;;;;;;;;3.00;99.90;;;;;;5087280;22;19931;-82
2022/01/07 05:45:56;;;;;;;;;;;3.00;99.90;;;;;;5085891;22;19924;-82
2022/01/07 05:48:22;;;;;;;;;;;3.20;99.90;;;;;;5090084;22;20011;-88
2022/01/07 05:50:48;;;;;;;;;;;3.00;99.90;;;;;;5091842;22;20413;-93
2022/01/07 05:53:14;;;;;;;;;;;3.00;99.90;;;;;;5103273;22;19928;-81
2022/01/07 05:55:39;;;;;;;;;;;3.00;99.90;;;;;;5084531;22;20299;-81
2022/01/07 05:58:09;;;;;;;;;;;3.00;99.90;;;;;;5103489;22;19928;31
2022/01/07 06:00:35;;;;;;;;;;;3.00;99.90;;;;;;5089033;22;19924;-81
2022/01/07 06:03:02;;;;;;;;;;;3.00;99.90;;;;;;5103142;22;19946;-81
2022/01/07 06:05:28;;;;;;;;;;;3.00;99.90;;;;;;5076025;22;20027;-82
2022/01/07 06:07:53;;;;;;;;;;;3.00;99.90;;;;;;5095775;22;19971;-81
2022/01/07 06:10:19;;;;;;;;;;;3.00;99.90;;;;;;5090189;22;19924;-81
2022/01/07 06:12:44;;;;;;;;;;;3.10;99.90;;;;;;5088146;22;19931;-81
2022/01/07 06:15:10;;;;;;;;;;;3.10;99.90;;;;;;5096370;22;19924;-81
2022/01/07 06:17:36;;;;;;;;;;;3.10;99.90;;;;;;5088508;22;20013;-81
2022/01/07 06:20:08;;;;;;;;;;;3.10;99.90;;;;;;5088279;22;19925;-93
2022/01/07 06:22:34;;;;;;;;;;;3.10;99.90;;;;;;5097806;22;19924;-81
2022/01/07 06:25:01;;;;;;;;;;;3.10;99.90;;;;;;5075508;22;19924;-81
2022/01/07 06:27:26;;;;;;;;;;;3.10;99.90;;;;;;5082092;22;20377;-93
2022/01/07 06:29:52;;;;;;;;;;;3.30;99.90;;;;;;5078413;22;19924;-81
2022/01/07 06:32:17;;;;;;;;;;;3.10;99.90;;;;;;5090214;22;20434;-81
2022/01/07 06:34:43;;;;;;;;;;;3.10;99.90;;;;;;5073358;23;20318;-81
2022/01/07 06:37:12;;;;;;;;;;;3.20;99.90;;;;;;5096961;22;19924;-81
2022/01/07 06:39:38;;;;;;;;;;;3.20;99.90;;;;;;5094019;22;19924;-81
2022/01/07 06:42:08;;;;;;;;;;;3.20;99.90;;;;;;5028447;22;1910295;31
2022/01/07 06:44:34;;;;;;;;;;;3.20;99.90;;;;;;5114805;22;19936;-81
2022/01/07 06:47:06;;;;;;;;;;;3.20;99.90;;;;;;5092101;22;19924;-81
2022/01/07 06:49:32;;;;;;;;;;;3.20;99.90;;;;;;5103878;22;19924;-81
2022/01/07 06:51:57;;;;;;;;;;;3.20;99.90;;;;;;5088021;22;19931;-89
2022/01/07 06:54:27;;;;;;;;;;;3.20;99.90;;;;;;5101870;22;19924;-82
2022/01/07 06:56:53;;;;;;;;;;;3.30;99.90;;;;;;5090359;22;19924;-82
2022/01/07 06:59:18;;;;;;;;;;;3.30;99.90;;;;;;5096238;22;19972;-81
2022/01/07 07:01:47;;;;;;;;;;;3.30;99.90;;;;;;5073376;23;19924;-81
2022/01/07 07:04:14;;;;;;;;;;;3.30;99.90;;;;;;5105904;22;20049;-81
2022/01/07 07:06:39;;;;;;;;;;;3.30;99.90;;;;;;5079647;23;20030;-81
2022/01/07 07:09:05;;;;;;;;;;;3.30;99.90;;;;;;5103267;22;20030;-81
2022/01/07 07:11:30;;;;;;;;;;;3.40;99.90;;;;;;5069921;23;19984;-94
2022/01/07 07:13:56;;;;;;;;;;;3.40;99.90;;;;;;5094254;22;19931;-81
2022/01/07 07:16:22;;;;;;;;;;;3.40;99.90;;;;;;5098655;22;19977;-81
2022/01/07 07:18:48;;;;;;;;;;;3.40;99.90;;;;;;5087853;22;19931;-84
2022/01/07 07:21:14;;;;;;;;;;;3.40;99.90;;;;;;5107353;22;19930;-81
2022/01/07 07:23:39;;;;;;;;;;;3.30;99.90;;;;;;5087684;22;19928;-81
2022/01/07 07:26:11;;;;;;;;;;;3.30;99.90;;;;;;5100676;22;20264;-82
2022/01/07 07:28:38;;;;;;;;;;;3.30;99.90;;;;;;5098841;22;19932;-82
2022/01/07 07:31:10;;;;;;;;;;;3.30;99.90;;;;;;5101103;22;19971;-81
2022/01/07 07:38:55;;;;;;;;;;;3.40;99.90;;;;;;5071553;22;19924;-82
2022/01/07 07:41:21;;;;;;;;;;;3.40;99.90;;;;;;5078138;22;20291;-81
2022/01/07 07:43:47;;;;;;;;;;;3.40;99.90;;;;;;5084430;22;19925;-81
2022/01/07 07:46:14;;;;;;;;;;;3.50;99.90;;;;;;5108201;22;20007;-81
2022/01/07 07:48:39;;;;;;;;;;;3.50;99.90;;;;;;5077682;22;19924;-81
2022/01/07 07:51:06;;;;;;;;;;;3.50;99.90;;;;;;5097986;22;19931;-81
2022/01/07 07:53:32;;;;;;;;;;;3.50;99.90;;;;;;5089874;22;19978;-94
2022/01/07 07:55:57;;;;;;;;;;;3.50;99.90;;;;;;5075516;23;19924;-93
2022/01/07 07:58:24;;;;;;;;;;;3.50;99.90;;;;;;5074365;22;19994;-91
2022/01/07 08:00:50;;;;;;;;;;;3.50;99.90;;;;;;5081791;23;20005;-92
2022/01/07 08:03:15;;;;;;;;;;;3.40;99.90;;;;;;5089447;22;19924;-81
2022/01/07 08:05:41;;;;;;;;;;;3.40;99.90;;;;;;5082396;22;19924;-81
2022/01/07 08:08:13;;;;;;;;;;;3.40;99.90;;;;;;5085515;22;19928;-81
2022/01/07 08:10:46;;;;;;;;;;;3.40;99.90;;;;;;5039416;22;19925;-82
2022/01/07 08:18:23;;;;;;;;;;;3.40;99.90;;;;;;5094070;22;20264;-81
2022/01/07 08:20:50;;;;;;;;;;;3.40;99.90;;;;;;5088262;22;20011;-93
2022/01/07 08:23:15;;;;;;;;;;;3.30;99.90;;;;;;5095795;22;19959;-81
2022/01/07 08:25:42;;;;;;;;;;;3.30;99.90;;;;;;5072702;22;19924;-81
2022/01/07 08:28:09;;;;;;;;;;;3.30;99.90;;;;;;5100399;22;19925;-81
2022/01/07 08:30:58;;;;;;;;;;;3.30;99.90;;;;;;5111053;22;19924;-81
2022/01/07 08:36:09;;;;;;;;;;;3.30;99.90;;;;;;5102360;22;20371;-80
2022/01/07 08:38:34;;;;;;;;;;;3.30;99.90;;;;;;5091892;22;19924;-81
2022/01/07 08:41:05;;;;;;;;;;;3.30;99.90;;;;;;5085999;22;19981;-82
2022/01/07 08:43:30;;;;;;;;;;;3.40;99.90;;;;;;5102426;23;19931;-82
2022/01/07 08:45:56;;;;;;;;;;;3.40;99.90;;;;;;5099251;22;19924;-81
2022/01/07 08:48:21;;;;;;;;;;;4.00;99.90;;;;;;5087237;22;19916;-82
2022/01/07 08:50:47;;;;;;;;;;;4.20;99.90;;;;;;5029985;22;19924;-92
2022/01/07 08:53:13;;;;;;;;;;;3.70;99.90;;;;;;5060619;22;19934;-83
2022/01/07 08:55:38;;;;;;;;;;;3.80;99.90;;;;;;5075148;22;19933;-82
2022/01/07 08:58:05;;;;;;;;;;;3.90;99.90;;;;;;5101721;22;19924;-81
2022/01/07 09:00:32;;;;;;;;;;;4.00;99.90;;;;;;5085710;22;19925;-81
2022/01/07 09:02:57;;;;;;;;;;;4.10;99.90;;;;;;5100149;22;19924;-93
2022/01/07 09:05:23;;;;;;;;;;;4.20;99.90;;;;;;5089185;22;19947;-92
2022/01/07 09:07:48;;;;;;;;;;;4.30;99.90;;;;;;5096522;22;19925;-81
2022/01/07 09:10:14;;;;;;;;;;;4.40;99.90;;;;;;5090258;22;20348;-81
2022/01/07 09:12:39;;;;;;;;;;;4.30;99.90;;;;;;5080489;23;19931;-81
2022/01/07 09:15:06;;;;;;;;;;;4.40;99.90;;;;;;5087888;22;19932;-82
2022/01/07 09:17:32;;;;;;;;;;;4.30;99.90;;;;;;5088496;28;20382;-82
2022/01/07 09:20:01;;;;;;;;;;;4.10;99.90;;;;;;5109772;22;19924;-82
2022/01/07 09:22:27;;;;;;;;;;;3.80;99.90;;;;;;5104144;22;19933;-83
2022/01/07 09:24:52;;;;;;;;;;;3.70;99.90;;;;;;5086052;28;20122;-82
2022/01/07 09:27:18;;;;;;;;;;;3.60;99.90;;;;;;5084558;28;19921;-82
2022/01/07 09:29:44;;;;;;;;;;;3.60;99.90;;;;;;5086706;22;19979;-81
2022/01/07 09:32:09;;;;;;;;;;;4.00;99.90;;;;;;5102918;22;19924;-81
2022/01/07 09:34:36;;;;;;;;;;;3.50;99.90;;;;;;5075634;23;19935;-82
2022/01/07 09:37:08;;;;;;;;;;;3.50;99.90;;;;;;5090111;22;19924;-81
2022/01/07 09:39:33;;;;;;;;;;;3.50;99.90;;;;;;5087370;22;19982;-86
2022/01/07 09:42:06;;;;;;;;;;;3.40;99.90;;;;;;5080887;22;20323;-82
2022/01/07 09:44:39;;;;;;;;;;;3.40;99.90;;;;;;5106281;22;19991;-94
2022/01/07 09:47:12;;;;;;;;;;;3.40;99.90;;;;;;5098382;22;20062;-94
2022/01/07 09:49:38;;;;;;;;;;;3.30;99.90;;;;;;5077714;22;20109;-94
2022/01/07 09:52:04;;;;;;;;;;;3.30;99.90;;;;;;5093801;22;19931;-81
2022/01/07 09:54:32;;;;;;;;;;;3.30;99.90;;;;;;5099213;22;19994;-82
2022/01/07 09:56:57;;;;;;;;;;;3.90;99.90;;;;;;5097974;22;19931;-82
2022/01/07 09:59:23;;;;;;;;;;;3.40;99.90;;;;;;5111350;22;19924;-91
2022/01/07 10:01:53;;;;;;;;;;;3.40;99.90;;;;;;5080715;22;19971;-90
2022/01/07 10:04:27;;;;;;;;;;;3.30;99.90;;;;;;5094617;22;19934;-81
2022/01/07 10:07:13;;;;;;;;;;;3.40;99.90;;;;;;5095876;23;19925;-81
2022/01/07 10:09:40;;;;;;;;;;;3.40;99.90;;;;;;5080165;22;19924;-81
2022/01/07 10:12:12;;;;;;;;;;;3.50;99.90;;;;;;5123779;22;20362;-81
2022/01/07 10:14:38;;;;;;;;;;;3.50;99.90;;;;;;5087280;22;19924;-81
2022/01/07 10:17:04;;;;;;;;;;;3.50;99.90;;;;;;5116086;22;19931;-81
2022/01/07 10:19:30;;;;;;;;;;;3.50;99.90;;;;;;5086466;22;19925;-81
2022/01/07 10:21:56;;;;;;;;;;;3.60;99.90;;;;;;5087923;22;20019;-81
2022/01/07 10:24:22;;;;;;;;;;;3.60;99.90;;;;;;5092090;22;19924;-81
2022/01/07 10:29:32;;;;;;;;;;;3.70;99.90;;;;;;5123634;22;20590;-81
2022/01/07 10:32:17;;;;;;;;;;;3.80;99.90;;;;;;5092922;22;19932;-86
2022/01/07 10:35:12;;;;;;;;;;;3.90;99.90;;;;;;5095590;22;19924;-81
2022/01/07 10:37:49;;;;;;;;;;;4.00;99.90;;;;;;5075123;22;19987;-81
2022/01/07 10:40:22;;;;;;;;;;;4.10;99.90;;;;;;5087397;22;19962;-81
2022/01/07 10:42:48;;;;;;;;;;;4.20;99.90;;;;;;5083236;22;20019;-81
2022/01/07 10:45:13;;;;;;;;;;;4.30;99.90;;;;;;5109406;22;20012;-81
2022/01/07 10:47:39;;;;;;;;;;;4.30;99.90;;;;;;5084814;22;19929;-81
2022/01/07 10:50:15;;;;;;;;;;;4.30;99.90;;;;;;5106522;22;19970;-81
2022/01/07 10:52:41;;;;;;;;;;;4.30;99.90;;;;;;5078906;22;19933;-81
2022/01/07 10:55:15;;;;;;;;;;;4.40;99.90;;;;;;5108811;22;19946;-80
2022/01/07 10:57:43;;;;;;;;;;;4.40;99.90;;;;;;5069098;22;19929;-81
2022/01/07 11:00:14;;;;;;;;;;;4.50;99.90;;;;;;5075145;22;20295;-81
2022/01/07 11:02:40;;;;;;;;;;;4.60;99.90;;;;;;5097102;22;19932;-81
2022/01/07 11:05:12;;;;;;;;;;;4.70;99.90;;;;;;5090598;22;19929;-81
2022/01/07 11:07:38;;;;;;;;;;;4.80;99.90;;;;;;5096610;22;21315;-82
2022/01/07 11:10:06;;;;;;;;;;;4.90;99.90;;;;;;5108718;22;19946;-81
2022/01/07 11:12:33;;;;;;;;;;;4.90;99.90;;;;;;5073263;23;19932;-81
2022/01/07 11:15:08;;;;;;;;;;;4.90;99.90;;;;;;5082956;22;20299;-82
2022/01/07 11:17:35;;;;;;;;;;;4.90;99.90;;;;;;5051936;22;20006;-81
2022/01/07 11:20:01;;;;;;;;;;;4.90;99.90;;;;;;5104260;22;20065;-81
2022/01/07 11:22:28;;;;;;;;;;;5.00;99.90;;;;;;5089954;22;19932;-92
2022/01/07 11:24:56;;;;;;;;;;;5.00;99.90;;;;;;5065280;28;19931;-81
2022/01/07 11:27:26;;;;;;;;;;;5.10;99.90;;;;;;5094686;22;20343;-81
2022/01/07 11:29:59;;;;;;;;;;;5.10;99.90;;;;;;5086019;22;19995;-93
2022/01/07 11:32:25;;;;;;;;;;;5.10;99.90;;;;;;5080385;22;20393;-81
2022/01/07 11:34:51;;;;;;;;;;;5.60;99.90;;;;;;5083363;28;19924;-93
2022/01/07 11:37:36;;;;;;;;;;;5.10;99.90;;;;;;5098221;22;19930;-91
2022/01/07 11:40:08;;;;;;;;;;;5.10;99.90;;;;;;5070498;22;19928;31
2022/01/07 11:42:52;;;;;;;;;;;5.20;99.90;;;;;;5080109;22;19966;-81
2022/01/07 11:45:27;;;;;;;;;;;5.00;99.90;;;;;;5093682;22;19908;-82
2022/01/07 11:47:53;;;;;;;;;;;4.90;99.90;;;;;;5091904;22;19924;-81
2022/01/07 11:50:18;;;;;;;;;;;4.80;99.90;;;;;;5090470;22;19935;-82
2022/01/07 11:52:55;;;;;;;;;;;4.80;99.90;;;;;;5095830;22;19924;-81
2022/01/07 11:55:24;;;;;;;;;;;4.70;99.90;;;;;;5101607;22;19996;-81
2022/01/07 11:57:51;;;;;;;;;;;4.60;99.90;;;;;;5088211;23;19924;-81
2022/01/07 12:00:36;;;;;;;;;;;4.60;99.90;;;;;;5110414;22;20011;-81
2022/01/07 12:03:06;;;;;;;;;;;4.60;99.90;;;;;;5089993;22;19924;-81
2022/01/07 12:05:32;;;;;;;;;;;4.60;99.90;;;;;;5093841;22;19925;-82
2022/01/07 12:07:57;;;;;;;;;;;4.70;99.90;;;;;;5100746;22;19931;-82
2022/01/07 12:10:23;;;;;;;;;;;4.90;99.90;;;;;;5027045;22;1943702;-81
2022/01/07 12:12:50;;;;;;;;;;;5.10;99.90;;;;;;5080817;23;19925;-83
2022/01/07 12:15:16;;;;;;;;;;;5.10;99.90;;;;;;5089992;22;19924;-82
2022/01/07 12:17:41;;;;;;;;;;;5.10;99.90;;;;;;5082051;22;19946;-82
2022/01/07 12:20:31;;;;;;;;;;;5.10;99.90;;;;;;5106331;22;19924;-80
2022/01/07 12:22:57;;;;;;;;;;;5.10;99.90;;;;;;5074325;22;20307;-82
2022/01/07 12:25:24;;;;;;;;;;;5.20;99.90;;;;;;5080779;22;19924;-82
2022/01/07 12:27:58;;;;;;;;;;;5.90;99.90;;;;;;5102243;22;19978;-82
2022/01/07 12:30:24;;;;;;;;;;;5.20;99.90;;;;;;5092473;22;19938;-81
2022/01/07 12:32:49;;;;;;;;;;;5.20;99.90;;;;;;5088767;22;19925;-83
2022/01/07 12:35:15;;;;;;;;;;;5.20;99.90;;;;;;5113624;22;19924;-81
2022/01/07 12:37:40;;;;;;;;;;;5.50;99.90;;;;;;5081650;23;19939;-82
2022/01/07 12:40:08;;;;;;;;;;;5.20;99.90;;;;;;5090291;22;19932;-82
2022/01/07 12:42:43;;;;;;;;;;;5.20;99.90;;;;;;5082656;22;19929;-82
2022/01/07 12:45:16;;;;;;;;;;;5.20;99.90;;;;;;5108926;22;19928;-81
2022/01/07 12:47:42;;;;;;;;;;;5.30;99.90;;;;;;5076154;22;19924;-82
2022/01/07 12:50:08;;;;;;;;;;;5.20;99.90;;;;;;5103528;22;19939;-82
2022/01/07 12:52:37;;;;;;;;;;;5.20;99.90;;;;;;5100961;22;19932;-82
2022/01/07 12:55:11;;;;;;;;;;;5.20;99.90;;;;;;5135281;22;19935;-82
2022/01/07 12:57:44;;;;;;;;;;;5.20;99.90;;;;;;5099077;22;19970;-82
2022/01/07 13:00:11;;;;;;;;;;;5.30;99.90;;;;;;5096800;22;19924;-83
2022/01/07 13:02:42;;;;;;;;;;;5.50;99.90;;;;;;5087575;28;19924;-81
2022/01/07 13:05:12;;;;;;;;;;;5.50;99.90;;;;;;5088627;28;20431;-82
2022/01/07 13:07:42;;;;;;;;;;;5.50;99.90;;;;;;5105352;23;19947;-82
2022/01/07 13:10:08;;;;;;;;;;;5.40;99.90;;;;;;5111583;22;20012;-81
2022/01/07 13:12:33;;;;;;;;;;;5.40;99.90;;;;;;5092301;22;19932;-82
2022/01/07 13:15:06;;;;;;;;;;;5.30;99.90;;;;;;5072677;23;19932;-82
2022/01/07 13:17:32;;;;;;;;;;;5.30;99.90;;;;;;5111846;22;19925;-81
2022/01/07 13:19:57;;;;;;;;;;;5.30;99.90;;;;;;5153587;22;19980;-81
2022/01/07 13:22:24;;;;;;;;;;;5.30;99.90;;;;;;5145713;27;19908;-81
2022/01/07 13:24:50;;;;;;;;;;;5.20;99.90;;;;;;5140096;27;20018;-82
2022/01/07 13:27:15;;;;;;;;;;;5.70;99.90;;;;;;5104201;22;19928;-81
2022/01/07 13:29:48;;;;;;;;;;;5.30;99.90;;;;;;5102593;22;19973;-81
2022/01/07 13:32:19;;;;;;;;;;;5.40;99.90;;;;;;5107645;22;19946;-81
2022/01/07 13:34:44;;;;;;;;;;;5.40;99.90;;;;;;5095000;22;19967;-81
2022/01/07 13:37:11;;;;;;;;;;;5.50;99.90;;;;;;5119007;22;19924;-81
2022/01/07 13:39:39;;;;;;;;;;;5.60;99.90;;;;;;5071297;23;21120;-81
2022/01/07 13:42:05;;;;;;;;;;;5.70;99.90;;;;;;5097762;22;19924;-82
2022/01/07 13:44:31;;;;;;;;;;;6.00;99.90;;;;;;5092704;22;19925;-81
2022/01/07 13:46:59;;;;;;;;;;;6.40;99.90;;;;;;5105715;22;20378;-81
2022/01/07 13:49:25;;;;;;;;;;;6.50;99.90;;;;;;5100275;22;19925;-81
2022/01/07 13:51:51;;;;;;;;;;;6.60;99.90;;;;;;5102875;22;20011;-81
2022/01/07 13:54:19;;;;;;;;;;;6.70;99.90;;;;;;5098227;22;19946;-81
2022/01/07 13:57:03;;;;;;;;;;;6.50;99.90;;;;;;5096022;22;19925;-81
2022/01/07 13:59:39;;;;;;;;;;;6.40;99.90;;;;;;5088265;22;19928;-81
2022/01/07 14:02:05;;;;;;;;;;;6.50;99.90;;;;;;5107339;22;20337;-81
2022/01/07 14:04:40;;;;;;;;;;;6.50;99.90;;;;;;5102722;23;19943;-81
2022/01/07 14:07:28;;;;;;;;;;;6.50;99.90;;;;;;5111674;22;19925;-81
2022/01/07 14:09:59;;;;;;;;;;;6.40;99.90;;;;;;5105774;22;19943;-81
2022/01/07 14:12:25;;;;;;;;;;;6.30;99.90;;;;;;5096495;22;19924;-81
2022/01/07 14:15:18;;;;;;;;;;;6.20;99.90;;;;;;5086747;22;19925;-81
2022/01/07 14:17:44;;;;;;;;;;;6.10;99.90;;;;;;5083449;22;19925;-81
2022/01/07 14:20:11;;;;;;;;;;;5.80;99.90;;;;;;5094036;22;19931;-81
2022/01/07 14:22:41;;;;;;;;;;;5.60;99.90;;;;;;5079427;22;19924;-81
2022/01/07 14:25:29;;;;;;;;;;;5.40;99.90;;;;;;5144126;22;19959;-80
2022/01/07 14:27:54;;;;;;;;;;;5.20;99.90;;;;;;5228312;22;19928;-81
2022/01/07 14:30:23;;;;;;;;;;;5.10;99.90;;;;;;5083388;22;19931;-81
2022/01/07 14:32:50;;;;;;;;;;;4.90;99.90;;;;;;5064023;23;19924;-81
2022/01/07 14:35:15;;;;;;;;;;;4.80;99.90;;;;;;5114596;22;19946;-81
2022/01/07 14:37:41;;;;;;;;;;;4.70;99.90;;;;;;5104081;22;19974;-81
2022/01/07 14:40:13;;;;;;;;;;;4.70;99.90;;;;;;5124370;22;19935;-81
2022/01/07 14:42:39;;;;;;;;;;;4.70;99.90;;;;;;5098042;22;19924;-81
2022/01/07 14:45:10;;;;;;;;;;;4.70;99.90;;;;;;5103218;22;20454;-81
2022/01/07 14:47:51;;;;;;;;;;;4.60;99.90;;;;;;5086061;22;20735;-81
2022/01/07 14:50:26;;;;;;;;;;;4.60;99.90;;;;;;5108882;22;19931;-82
2022/01/07 14:52:52;;;;;;;;;;;4.60;99.90;;;;;;5074301;22;19924;-81
2022/01/07 14:55:21;;;;;;;;;;;4.60;99.90;;;;;;5087605;22;19916;-82
2022/01/07 14:57:47;;;;;;;;;;;4.50;99.90;;;;;;5074163;22;19978;-82